createdAt,value
2022-08-14T00:00:12.269Z,24.94
2022-08-14T00:02:43.158Z,24.93
2022-08-14T00:05:16.822Z,24.92
2022-08-14T00:07:46.326Z,24.89
2022-08-14T00:10:51.142Z,24.87
2022-08-14T00:13:06.717Z,24.85
2022-08-14T00:15:43.708Z,24.83
2022-08-14T00:18:14.486Z,24.80
2022-08-14T00:20:44.561Z,24.78
2022-08-14T00:23:17.323Z,24.76
2022-08-14T00:25:59.093Z,24.73
2022-08-14T00:28:35.716Z,24.70
2022-08-14T00:31:05.200Z,24.68
2022-08-14T00:33:52.001Z,24.66
2022-08-14T00:36:37.695Z,24.62
2022-08-14T00:39:13.855Z,24.59
2022-08-14T00:41:42.203Z,24.55
2022-08-14T00:44:10.618Z,24.51
2022-08-14T00:46:38.808Z,24.48
2022-08-14T00:49:14.723Z,24.45
2022-08-14T00:51:45.561Z,24.42
2022-08-14T00:54:21.997Z,24.40
2022-08-14T00:56:55.777Z,24.37
2022-08-14T00:59:25.150Z,24.34
2022-08-14T01:01:55.436Z,24.31
2022-08-14T01:04:51.166Z,24.29
2022-08-14T01:07:21.191Z,24.25
2022-08-14T01:09:51.520Z,24.23
2022-08-14T01:12:27.166Z,24.20
2022-08-14T01:14:58.244Z,24.16
2022-08-14T01:17:50.036Z,24.14
2022-08-14T01:20:39.577Z,24.11
2022-08-14T01:23:10.394Z,24.09
2022-08-14T01:25:46.122Z,24.05
2022-08-14T01:28:46.248Z,24.04
2022-08-14T01:31:05.986Z,24.01
2022-08-14T01:33:59.347Z,23.99
2022-08-14T01:36:23.878Z,23.96
2022-08-14T01:38:55.401Z,23.94
2022-08-14T01:41:29.801Z,23.90
2022-08-14T01:44:01.158Z,23.86
2022-08-14T01:46:33.541Z,23.84
2022-08-14T01:49:07.486Z,23.80
2022-08-14T01:51:36.419Z,23.78
2022-08-14T01:54:06.923Z,23.74
2022-08-14T01:56:39.171Z,23.73
2022-08-14T01:59:09.586Z,23.70
2022-08-14T02:01:41.779Z,23.69
2022-08-14T02:04:40.449Z,23.66
2022-08-14T02:06:59.013Z,23.62
2022-08-14T02:09:28.306Z,23.58
2022-08-14T02:12:00.220Z,23.58
2022-08-14T02:14:32.107Z,23.55
2022-08-14T02:17:00.699Z,23.54
2022-08-14T02:19:32.297Z,23.49
2022-08-14T02:22:03.424Z,23.47
2022-08-14T02:24:39.467Z,23.44
2022-08-14T02:28:25.581Z,23.42
2022-08-14T02:29:59.942Z,23.40
2022-08-14T02:32:36.781Z,23.36
2022-08-14T02:35:10.399Z,23.36
2022-08-14T02:37:47.396Z,23.32
2022-08-14T02:40:18.916Z,23.30
2022-08-14T02:42:54.617Z,23.27
2022-08-14T02:45:32.865Z,23.25
2022-08-14T02:48:10.362Z,23.21
2022-08-14T02:50:55.798Z,23.19
2022-08-14T02:53:23.886Z,23.18
2022-08-14T02:55:53.916Z,23.17
2022-08-14T02:58:30.487Z,23.14
2022-08-14T03:00:59.968Z,23.13
2022-08-14T03:03:31.698Z,23.12
2022-08-14T03:06:03.485Z,23.10
2022-08-14T03:08:33.774Z,23.08
2022-08-14T03:11:07.715Z,23.06
2022-08-14T03:13:36.969Z,23.04
2022-08-14T03:16:08.972Z,23.03
2022-08-14T03:18:52.527Z,23.01
2022-08-14T03:21:23.174Z,23.00
2022-08-14T03:23:52.261Z,23.00
2022-08-14T03:26:29.986Z,22.99
2022-08-14T03:29:01.175Z,22.97
2022-08-14T03:31:30.337Z,22.96
2022-08-14T03:34:00.092Z,22.94
2022-08-14T03:37:52.043Z,22.93
2022-08-14T03:39:24.052Z,22.90
2022-08-14T03:41:56.064Z,22.89
2022-08-14T03:45:25.218Z,22.87
2022-08-14T03:47:18.639Z,22.84
2022-08-14T03:49:50.250Z,22.83
2022-08-14T03:52:38.092Z,22.81
2022-08-14T03:55:08.192Z,22.80
2022-08-14T03:57:40.550Z,22.78
2022-08-14T04:00:14.013Z,22.76
2022-08-14T04:02:59.087Z,22.74
2022-08-14T04:05:27.166Z,22.73
2022-08-14T04:08:08.387Z,22.70
2022-08-14T04:10:43.602Z,22.68
2022-08-14T04:13:18.312Z,22.64
2022-08-14T04:16:01.177Z,22.61
2022-08-14T04:18:32.453Z,22.58
2022-08-14T04:21:04.092Z,22.54
2022-08-14T04:23:33.415Z,22.50
2022-08-14T04:26:02.583Z,22.48
2022-08-14T04:29:07.912Z,22.46
2022-08-14T04:32:56.435Z,22.43
2022-08-14T04:34:11.905Z,22.42
2022-08-14T04:36:59.458Z,22.40
2022-08-14T04:39:59.382Z,22.38
2022-08-14T04:42:51.524Z,22.35
2022-08-14T04:45:23.704Z,22.31
2022-08-14T04:48:10.072Z,22.28
2022-08-14T04:50:44.848Z,22.24
2022-08-14T04:53:14.949Z,22.22
2022-08-14T04:55:45.891Z,22.21
2022-08-14T04:58:21.583Z,22.19
2022-08-14T05:01:02.474Z,22.18
2022-08-14T05:03:32.085Z,22.16
2022-08-14T05:06:01.162Z,22.15
2022-08-14T05:08:32.265Z,22.15
2022-08-14T05:11:19.914Z,22.14
2022-08-14T05:16:39.808Z,22.12
2022-08-14T05:19:18.400Z,22.12
2022-08-14T05:22:15.628Z,22.11
2022-08-14T05:24:44.845Z,22.10
2022-08-14T05:27:13.056Z,22.11
2022-08-14T05:29:47.733Z,22.13
2022-08-14T05:32:17.818Z,22.15
2022-08-14T05:34:46.657Z,22.20
2022-08-14T05:37:15.439Z,22.24
2022-08-14T05:39:43.835Z,22.30
2022-08-14T05:42:22.071Z,22.36
2022-08-14T05:45:00.216Z,22.44
2022-08-14T05:47:39.431Z,22.48
2022-08-14T05:50:19.309Z,22.54
2022-08-14T05:52:48.708Z,22.60
2022-08-14T05:55:21.787Z,22.64
2022-08-14T05:58:10.001Z,22.67
2022-08-14T06:00:57.724Z,22.70
2022-08-14T06:03:27.469Z,22.73
2022-08-14T06:05:56.514Z,22.76
2022-08-14T06:08:36.032Z,22.76
2022-08-14T06:11:10.078Z,22.78
2022-08-14T06:13:44.656Z,22.79
2022-08-14T06:16:17.803Z,22.78
2022-08-14T06:18:52.679Z,22.80
2022-08-14T06:21:21.726Z,22.80
2022-08-14T06:23:50.647Z,22.81
2022-08-14T06:26:22.329Z,22.82
2022-08-14T06:28:52.439Z,22.83
2022-08-14T06:31:22.908Z,22.86
2022-08-14T06:35:11.098Z,22.86
2022-08-14T06:36:40.822Z,22.92
2022-08-14T06:39:10.070Z,22.97
2022-08-14T06:41:56.646Z,23.03
2022-08-14T06:44:30.583Z,23.14
2022-08-14T06:47:01.596Z,23.24
2022-08-14T06:49:40.260Z,23.36
2022-08-14T06:52:16.585Z,23.50
2022-08-14T06:54:45.686Z,23.67
2022-08-14T06:57:14.311Z,23.84
2022-08-14T06:59:42.631Z,24.02
2022-08-14T07:02:28.790Z,24.18
2022-08-14T07:05:16.981Z,24.38
2022-08-14T07:07:49.354Z,24.54
2022-08-14T07:10:19.240Z,24.69
2022-08-14T07:12:56.296Z,24.81
2022-08-14T07:15:32.418Z,24.97
2022-08-14T07:18:08.661Z,25.09
2022-08-14T07:20:39.632Z,25.22
2022-08-14T07:23:20.912Z,25.33
2022-08-14T07:25:51.372Z,25.44
2022-08-14T07:28:21.616Z,25.54
2022-08-14T07:30:51.249Z,25.63
2022-08-14T07:33:24.706Z,25.74
2022-08-14T07:36:00.420Z,25.83
2022-08-14T07:38:33.968Z,25.92
2022-08-14T07:41:06.949Z,26.02
2022-08-14T07:43:42.668Z,26.14
2022-08-14T07:46:12.535Z,26.24
2022-08-14T07:48:41.530Z,26.34
2022-08-14T07:51:11.812Z,26.45
2022-08-14T07:53:40.892Z,26.55
2022-08-14T07:56:44.519Z,26.64
2022-08-14T07:58:59.013Z,26.74
2022-08-14T08:01:30.950Z,26.83
2022-08-14T08:04:01.275Z,26.93
2022-08-14T08:06:30.792Z,27.03
2022-08-14T08:09:03.046Z,27.14
2022-08-14T08:11:34.914Z,27.25
2022-08-14T08:14:10.420Z,27.34
2022-08-14T08:16:44.722Z,27.45
2022-08-14T08:19:19.458Z,27.55
2022-08-14T08:21:49.061Z,27.64
2022-08-14T08:24:20.145Z,27.74
2022-08-14T08:26:50.409Z,27.86
2022-08-14T08:29:24.978Z,28.00
2022-08-14T08:32:01.910Z,28.13
2022-08-14T08:39:18.062Z,28.47
2022-08-14T08:41:18.560Z,28.63
2022-08-14T08:43:47.482Z,28.78
2022-08-14T08:46:24.039Z,28.93
2022-08-14T08:51:22.900Z,29.21
2022-08-14T08:54:02.612Z,29.36
2022-08-14T08:56:42.108Z,29.52
2022-08-14T08:59:27.339Z,29.66
2022-08-14T09:02:00.937Z,29.83
2022-08-14T09:04:31.544Z,29.97
2022-08-14T09:07:09.211Z,30.13
2022-08-14T09:09:54.431Z,30.26
2022-08-14T09:12:31.867Z,30.41
2022-08-14T09:15:02.086Z,30.57
2022-08-14T09:17:30.228Z,30.67
2022-08-14T09:20:11.408Z,30.81
2022-08-14T09:22:48.137Z,30.93
2022-08-14T09:26:00.327Z,31.05
2022-08-14T09:28:10.311Z,31.17
2022-08-14T09:30:42.950Z,31.27
2022-08-14T09:33:23.647Z,31.37
2022-08-14T09:35:58.559Z,31.46
2022-08-14T09:38:33.971Z,31.52
2022-08-14T09:41:11.987Z,31.60
2022-08-14T09:43:55.202Z,31.67
2022-08-14T09:46:28.832Z,31.73
2022-08-14T09:49:01.417Z,31.80
2022-08-14T09:51:41.345Z,31.87
2022-08-14T09:54:22.465Z,31.94
2022-08-14T09:57:06.968Z,32.00
2022-08-14T09:59:52.968Z,32.08
2022-08-14T10:02:31.974Z,32.16
2022-08-14T10:05:15.138Z,32.23
2022-08-14T10:07:59.065Z,32.31
2022-08-14T10:10:41.606Z,32.40
2022-08-14T10:13:22.261Z,32.49
2022-08-14T10:16:00.258Z,32.57
2022-08-14T10:18:29.416Z,32.66
2022-08-14T10:20:58.943Z,32.75
2022-08-14T10:23:30.172Z,32.83
2022-08-14T10:26:22.863Z,32.90
2022-08-14T10:29:19.679Z,32.99
2022-08-14T10:31:59.213Z,33.06
2022-08-14T10:34:35.704Z,33.13
2022-08-14T10:37:14.226Z,33.19
2022-08-14T10:39:51.136Z,33.25
2022-08-14T10:42:36.389Z,33.31
2022-08-14T10:45:21.593Z,33.34
2022-08-14T10:48:09.450Z,33.37
2022-08-14T10:50:46.956Z,33.40
2022-08-14T10:53:16.595Z,33.44
2022-08-14T10:55:46.718Z,33.49
2022-08-14T10:58:34.129Z,33.53
2022-08-14T11:01:05.815Z,33.58
2022-08-14T11:03:56.847Z,33.62
2022-08-14T11:06:27.157Z,33.68
2022-08-14T11:08:55.963Z,33.72
2022-08-14T11:11:28.658Z,33.77
2022-08-14T11:14:09.488Z,33.82
2022-08-14T11:16:40.713Z,33.87
2022-08-14T11:19:10.250Z,33.91
2022-08-14T11:21:40.497Z,33.96
2022-08-14T11:24:55.257Z,34.00
2022-08-14T11:27:06.790Z,34.03
2022-08-14T11:29:36.896Z,34.02
2022-08-14T11:32:07.875Z,34.04
2022-08-14T11:34:39.541Z,34.04
2022-08-14T11:37:20.763Z,34.06
2022-08-14T11:39:59.431Z,34.08
2022-08-14T11:42:57.020Z,34.10
2022-08-14T11:45:18.624Z,34.13
2022-08-14T11:48:13.410Z,34.17
2022-08-14T11:50:41.483Z,34.20
2022-08-14T11:53:20.709Z,34.24
2022-08-14T11:55:50.831Z,34.29
2022-08-14T11:58:24.356Z,34.33
2022-08-14T12:00:54.812Z,34.37
2022-08-14T12:03:27.197Z,34.41
2022-08-14T12:06:45.677Z,34.44
2022-08-14T12:09:28.900Z,34.46
2022-08-14T12:11:57.320Z,34.47
2022-08-14T12:14:31.010Z,34.46
2022-08-14T12:17:09.323Z,34.46
2022-08-14T12:19:53.691Z,34.46
2022-08-14T12:22:33.951Z,34.43
2022-08-14T12:25:06.032Z,34.43
2022-08-14T12:27:53.613Z,34.43
2022-08-14T12:30:34.322Z,34.43
2022-08-14T12:33:08.835Z,34.43
2022-08-14T12:35:39.584Z,34.44
2022-08-14T12:38:08.510Z,34.44
2022-08-14T12:40:48.584Z,34.45
2022-08-14T12:43:19.425Z,34.46
2022-08-14T12:45:51.104Z,34.47
2022-08-14T12:48:32.005Z,34.46
2022-08-14T12:51:01.788Z,34.46
2022-08-14T12:53:38.980Z,34.44
2022-08-14T12:56:22.308Z,34.40
2022-08-14T12:58:57.251Z,34.35
2022-08-14T13:01:27.447Z,34.29
2022-08-14T13:04:05.521Z,34.22
2022-08-14T13:06:35.518Z,34.16
2022-08-14T13:09:05.154Z,34.09
2022-08-14T13:11:41.322Z,34.02
2022-08-14T13:14:16.929Z,33.97
2022-08-14T13:16:50.464Z,33.90
2022-08-14T13:19:19.924Z,33.83
2022-08-14T13:22:05.159Z,33.78
2022-08-14T13:24:39.501Z,33.74
2022-08-14T13:27:09.781Z,33.71
2022-08-14T13:29:46.926Z,33.69
2022-08-14T13:32:19.324Z,33.66
2022-08-14T13:34:49.333Z,33.64
2022-08-14T13:37:22.970Z,33.60
2022-08-14T13:39:57.295Z,33.58
2022-08-14T13:42:33.850Z,33.56
2022-08-14T13:45:04.840Z,33.55
2022-08-14T13:47:33.445Z,33.55
2022-08-14T13:50:02.833Z,33.55
2022-08-14T13:52:51.499Z,33.56
2022-08-14T13:55:22.940Z,33.57
2022-08-14T13:58:03.640Z,33.57
2022-08-14T14:00:35.859Z,33.57
2022-08-14T14:03:15.862Z,33.56
2022-08-14T14:05:52.861Z,33.55
2022-08-14T14:08:47.025Z,33.53
2022-08-14T14:11:15.854Z,33.53
2022-08-14T14:13:45.540Z,33.50
2022-08-14T14:16:21.704Z,33.47
2022-08-14T14:18:56.367Z,33.43
2022-08-14T14:21:28.686Z,33.38
2022-08-14T14:23:58.472Z,33.33
2022-08-14T14:26:27.996Z,33.27
2022-08-14T14:28:57.047Z,33.23
2022-08-14T14:31:29.559Z,33.19
2022-08-14T14:33:59.571Z,33.16
2022-08-14T14:36:28.476Z,33.14
2022-08-14T14:38:59.224Z,33.12
2022-08-14T14:41:37.899Z,33.13
2022-08-14T14:44:09.038Z,33.13
2022-08-14T14:46:38.449Z,33.13
2022-08-14T14:49:14.851Z,33.15
2022-08-14T14:51:46.817Z,33.16
2022-08-14T14:54:30.049Z,33.18
2022-08-14T14:57:02.322Z,33.19
2022-08-14T14:59:31.015Z,33.22
2022-08-14T15:02:06.410Z,33.23
2022-08-14T15:04:37.983Z,33.24
2022-08-14T15:10:38.268Z,33.20
2022-08-14T15:13:08.616Z,33.18
2022-08-14T15:15:37.884Z,33.16
2022-08-14T15:18:36.810Z,33.13
2022-08-14T15:20:57.628Z,33.11
2022-08-14T15:23:32.256Z,33.09
2022-08-14T15:26:24.088Z,33.08
2022-08-14T15:29:02.821Z,33.06
2022-08-14T15:31:34.692Z,33.07
2022-08-14T15:34:44.257Z,33.06
2022-08-14T15:37:04.748Z,33.05
2022-08-14T15:39:35.454Z,33.05
2022-08-14T15:42:14.559Z,33.05
2022-08-14T15:44:57.152Z,33.03
2022-08-14T15:47:28.161Z,33.01
2022-08-14T15:49:59.472Z,33.00
2022-08-14T15:52:33.031Z,32.99
2022-08-14T15:55:04.887Z,32.96
2022-08-14T15:57:35.499Z,32.96
2022-08-14T16:00:43.918Z,32.93
2022-08-14T16:03:14.263Z,32.91
2022-08-14T16:05:46.077Z,32.90
2022-08-14T16:08:29.046Z,32.90
2022-08-14T16:10:58.886Z,32.90
2022-08-14T16:13:41.927Z,32.89
2022-08-14T16:16:47.138Z,32.89
2022-08-14T16:19:09.635Z,32.88
2022-08-14T16:21:40.328Z,32.87
2022-08-14T16:24:26.928Z,32.86
2022-08-14T16:27:00.788Z,32.85
2022-08-14T16:29:31.178Z,32.85
2022-08-14T16:31:59.624Z,32.82
2022-08-14T16:34:46.008Z,32.79
2022-08-14T16:37:18.817Z,32.75
2022-08-14T16:39:48.685Z,32.72
2022-08-14T16:42:39.061Z,32.68
2022-08-14T16:45:09.463Z,32.62
2022-08-14T16:47:37.911Z,32.59
2022-08-14T16:50:10.482Z,32.55
2022-08-14T16:52:44.216Z,32.53
2022-08-14T16:55:14.283Z,32.51
2022-08-14T16:57:49.940Z,32.46
2022-08-14T17:00:32.923Z,32.43
2022-08-14T17:03:12.014Z,32.39
2022-08-14T17:05:42.955Z,32.37
2022-08-14T17:08:33.108Z,32.33
2022-08-14T17:11:04.775Z,32.28
2022-08-14T17:13:58.754Z,32.25
2022-08-14T17:16:29.660Z,32.22
2022-08-14T17:19:01.703Z,32.18
2022-08-14T17:21:32.346Z,32.14
2022-08-14T17:24:01.332Z,32.12
2022-08-14T17:26:55.028Z,32.08
2022-08-14T17:29:29.680Z,32.03
2022-08-14T17:32:03.257Z,32.00
2022-08-14T17:34:45.639Z,31.96
2022-08-14T17:37:25.449Z,31.92
2022-08-14T17:40:15.094Z,31.88
2022-08-14T17:42:55.583Z,31.84
2022-08-14T17:45:43.373Z,31.80
2022-08-14T17:49:14.295Z,31.77
2022-08-14T17:51:29.942Z,31.71
2022-08-14T17:54:02.390Z,31.65
2022-08-14T17:56:32.188Z,31.64
2022-08-14T17:59:02.430Z,31.58
2022-08-14T18:01:35.678Z,31.54
2022-08-14T18:04:05.596Z,31.51
2022-08-14T18:06:39.767Z,31.47
2022-08-14T18:09:26.352Z,31.43
2022-08-14T18:11:55.471Z,31.39
2022-08-14T18:14:31.959Z,31.35
2022-08-14T18:17:02.246Z,31.31
2022-08-14T18:19:31.120Z,31.26
2022-08-14T18:22:23.853Z,31.21
2022-08-14T18:24:54.040Z,31.16
2022-08-14T18:27:23.459Z,31.11
2022-08-14T18:29:55.268Z,31.07
2022-08-14T18:32:39.637Z,31.01
2022-08-14T18:35:16.848Z,30.95
2022-08-14T18:37:55.456Z,30.88
2022-08-14T18:40:35.062Z,30.82
2022-08-14T18:43:06.172Z,30.76
2022-08-14T18:45:43.078Z,30.71
2022-08-14T18:48:33.228Z,30.65
2022-08-14T18:51:45.199Z,30.59
2022-08-14T18:54:29.949Z,30.53
2022-08-14T18:57:02.331Z,30.46
2022-08-14T18:59:35.693Z,30.41
2022-08-14T19:02:20.536Z,30.35
2022-08-14T19:04:49.014Z,30.28
2022-08-14T19:07:19.658Z,30.24
2022-08-14T19:09:57.941Z,30.18
2022-08-14T19:12:44.942Z,30.13
2022-08-14T19:15:20.358Z,30.07
2022-08-14T19:18:14.162Z,30.00
2022-08-14T19:20:47.428Z,29.94
2022-08-14T19:23:18.576Z,29.89
2022-08-14T19:26:03.067Z,29.83
2022-08-14T19:28:51.549Z,29.77
2022-08-14T19:31:41.990Z,29.72
2022-08-14T19:34:10.869Z,29.65
2022-08-14T19:37:08.790Z,29.59
2022-08-14T19:39:53.195Z,29.52
2022-08-14T19:42:28.251Z,29.47
2022-08-14T19:44:59.127Z,29.39
2022-08-14T19:47:40.974Z,29.34
2022-08-14T19:50:38.391Z,29.26
2022-08-14T19:53:11.622Z,29.20
2022-08-14T19:55:47.372Z,29.15
2022-08-14T19:58:26.035Z,29.09
2022-08-14T20:00:59.223Z,29.02
2022-08-14T20:03:59.837Z,28.95
2022-08-14T20:06:18.153Z,28.90
2022-08-14T20:11:02.524Z,28.85
2022-08-14T20:12:00.369Z,28.80
2022-08-14T20:14:31.296Z,28.74
2022-08-14T20:17:06.291Z,28.68
2022-08-14T20:19:37.787Z,28.62
2022-08-14T20:22:36.610Z,28.59
2022-08-14T20:25:12.110Z,28.54
2022-08-14T20:27:43.952Z,28.49
2022-08-14T20:30:37.611Z,28.45
2022-08-14T20:33:10.960Z,28.40
2022-08-14T20:35:44.368Z,28.36
2022-08-14T20:38:30.391Z,28.32
2022-08-14T20:41:00.977Z,28.26
2022-08-14T20:44:02.906Z,28.22
2022-08-14T20:46:38.811Z,28.17
2022-08-14T20:49:08.758Z,28.14
2022-08-14T20:51:43.437Z,28.10
2022-08-14T20:54:33.836Z,28.06
2022-08-14T20:57:07.567Z,28.04
2022-08-14T20:59:40.198Z,28.02
2022-08-14T21:02:30.422Z,27.99
2022-08-14T21:05:17.285Z,27.94
2022-08-14T21:07:50.750Z,27.91
2022-08-14T21:10:33.475Z,27.87
2022-08-14T21:13:25.638Z,27.83
2022-08-14T21:15:57.893Z,27.80
2022-08-14T21:18:29.736Z,27.75
2022-08-14T21:20:59.182Z,27.71
2022-08-14T21:23:32.882Z,27.67
2022-08-14T21:26:01.581Z,27.62
2022-08-14T21:28:35.153Z,27.57
2022-08-14T21:31:04.113Z,27.53
2022-08-14T21:33:35.659Z,27.48
2022-08-14T21:36:07.805Z,27.42
2022-08-14T21:38:38.034Z,27.39
2022-08-14T21:41:43.381Z,27.34
2022-08-14T21:44:17.569Z,27.29
2022-08-14T21:46:50.567Z,27.24
2022-08-14T21:49:23.537Z,27.18
2022-08-14T21:51:57.102Z,27.13
2022-08-14T21:54:32.104Z,27.07
2022-08-14T21:57:17.575Z,27.02
2022-08-14T21:59:45.672Z,26.96
2022-08-14T22:02:32.286Z,26.93
2022-08-14T22:05:05.614Z,26.87
2022-08-14T22:07:38.879Z,26.81
2022-08-14T22:10:11.206Z,26.76
2022-08-14T22:12:57.269Z,26.71
2022-08-14T22:15:27.400Z,26.65
2022-08-14T22:17:55.735Z,26.62
2022-08-14T22:20:28.726Z,26.59
2022-08-14T22:22:57.784Z,26.55
2022-08-14T22:25:33.362Z,26.50
2022-08-14T22:28:04.380Z,26.47
2022-08-14T22:30:32.815Z,26.42
2022-08-14T22:33:00.919Z,26.38
2022-08-14T22:35:30.445Z,26.36
2022-08-14T22:38:01.912Z,26.31
2022-08-14T22:41:04.380Z,26.28
2022-08-14T22:43:38.868Z,26.25
2022-08-14T22:46:15.090Z,26.21
2022-08-14T22:48:45.278Z,26.17
2022-08-14T22:51:17.756Z,26.12
2022-08-14T22:53:48.488Z,26.10
2022-08-14T22:56:21.458Z,26.08
2022-08-14T22:58:54.022Z,26.04
2022-08-14T23:01:25.031Z,26.00
2022-08-14T23:04:35.309Z,25.97
2022-08-14T23:07:22.295Z,25.94
2022-08-14T23:09:56.797Z,25.91
2022-08-14T23:12:28.541Z,25.88
2022-08-14T23:14:57.561Z,25.86
2022-08-14T23:17:25.893Z,25.81
2022-08-14T23:19:56.447Z,25.78
2022-08-14T23:22:26.851Z,25.75
2022-08-14T23:24:56.842Z,25.73
2022-08-14T23:27:31.976Z,25.69
2022-08-14T23:30:31.905Z,25.63
2022-08-14T23:33:03.813Z,25.60
2022-08-14T23:35:33.122Z,25.55
2022-08-14T23:38:05.632Z,25.50
2022-08-14T23:40:35.874Z,25.47
2022-08-14T23:43:09.217Z,25.44
2022-08-14T23:45:38.744Z,25.43
2022-08-14T23:48:09.913Z,25.40
2022-08-14T23:50:41.880Z,25.37
2022-08-14T23:53:27.952Z,25.35
2022-08-14T23:56:08.266Z,25.32
2022-08-14T23:58:36.991Z,25.29
